sensor_id;sensor_type;location;lat;lon;timestamp;pressure;altitude;pressure_sealevel;temperature
86580;BMP280;77221;51.120;13.792;2024-03-23T00:52:06;98623.16;;;7.51
86580;BMP280;77221;51.120;13.792;2024-03-23T00:54:32;98633.84;;;7.43
86580;BMP280;77221;51.120;13.792;2024-03-23T00:56:58;98627.88;;;7.33
86580;BMP280;77221;51.120;13.792;2024-03-23T00:59:24;98611.97;;;7.33
86580;BMP280;77221;51.120;13.792;2024-03-23T01:01:54;98621.28;;;7.40
86580;BMP280;77221;51.120;13.792;2024-03-23T01:04:20;98615.72;;;7.32
86580;BMP280;77221;51.120;13.792;2024-03-23T01:06:47;98619.28;;;7.24
86580;BMP280;77221;51.120;13.792;2024-03-23T01:09:13;98624.13;;;7.10
86580;BMP280;77221;51.120;13.792;2024-03-23T01:11:40;98621.00;;;7.08
86580;BMP280;77221;51.120;13.792;2024-03-23T01:14:06;98616.59;;;7.12
86580;BMP280;77221;51.120;13.792;2024-03-23T01:16:32;98617.53;;;6.96
86580;BMP280;77221;51.120;13.792;2024-03-23T01:18:58;98610.38;;;6.84
86580;BMP280;77221;51.120;13.792;2024-03-23T01:21:24;98612.97;;;6.72
86580;BMP280;77221;51.120;13.792;2024-03-23T01:23:51;98607.19;;;6.58
86580;BMP280;77221;51.120;13.792;2024-03-23T01:26:17;98609.13;;;6.49
86580;BMP280;77221;51.120;13.792;2024-03-23T01:28:43;98602.50;;;6.43
86580;BMP280;77221;51.120;13.792;2024-03-23T01:31:09;98588.91;;;6.44
86580;BMP280;77221;51.120;13.792;2024-03-23T01:33:35;98583.53;;;6.41
86580;BMP280;77221;51.120;13.792;2024-03-23T01:36:02;98585.91;;;6.33
86580;BMP280;77221;51.120;13.792;2024-03-23T01:38:28;98580.81;;;6.28
86580;BMP280;77221;51.120;13.792;2024-03-23T01:40:58;98581.28;;;6.30
86580;BMP280;77221;51.120;13.792;2024-03-23T01:43:24;98582.81;;;6.31
86580;BMP280;77221;51.120;13.792;2024-03-23T01:45:50;98573.59;;;6.38
86580;BMP280;77221;51.120;13.792;2024-03-23T01:48:21;98571.88;;;6.54
86580;BMP280;77221;51.120;13.792;2024-03-23T01:50:48;98567.47;;;6.70
86580;BMP280;77221;51.120;13.792;2024-03-23T01:53:14;98569.81;;;6.71
86580;BMP280;77221;51.120;13.792;2024-03-23T01:55:43;98561.44;;;6.81
86580;BMP280;77221;51.120;13.792;2024-03-23T01:58:09;98553.88;;;6.92
86580;BMP280;77221;51.120;13.792;2024-03-23T02:00:36;98556.28;;;6.97
86580;BMP280;77221;51.120;13.792;2024-03-23T02:03:21;98549.75;;;7.07
86580;BMP280;77221;51.120;13.792;2024-03-23T02:05:48;98547.56;;;7.09
86580;BMP280;77221;51.120;13.792;2024-03-23T02:08:14;98548.59;;;7.16
86580;BMP280;77221;51.120;13.792;2024-03-23T02:10:40;98544.16;;;7.20
86580;BMP280;77221;51.120;13.792;2024-03-23T02:13:06;98544.38;;;7.27
86580;BMP280;77221;51.120;13.792;2024-03-23T02:15:33;98536.19;;;7.32
86580;BMP280;77221;51.120;13.792;2024-03-23T02:17:59;98536.63;;;7.22
86580;BMP280;77221;51.120;13.792;2024-03-23T02:20:26;98539.97;;;7.31
86580;BMP280;77221;51.120;13.792;2024-03-23T02:22:53;98533.06;;;7.55
86580;BMP280;77221;51.120;13.792;2024-03-23T02:25:19;98535.72;;;7.55
86580;BMP280;77221;51.120;13.792;2024-03-23T02:27:45;98525.09;;;7.67
86580;BMP280;77221;51.120;13.792;2024-03-23T02:30:11;98522.22;;;7.72
86580;BMP280;77221;51.120;13.792;2024-03-23T02:32:37;98511.03;;;7.78
86580;BMP280;77221;51.120;13.792;2024-03-23T02:35:04;98511.97;;;7.86
86580;BMP280;77221;51.120;13.792;2024-03-23T02:37:30;98509.56;;;7.81
86580;BMP280;77221;51.120;13.792;2024-03-23T02:39:57;98509.75;;;7.88
86580;BMP280;77221;51.120;13.792;2024-03-23T02:42:23;98497.59;;;7.87
86580;BMP280;77221;51.120;13.792;2024-03-23T02:44:49;98496.03;;;7.86
86580;BMP280;77221;51.120;13.792;2024-03-23T02:47:15;98493.16;;;7.91
86580;BMP280;77221;51.120;13.792;2024-03-23T02:49:41;98501.56;;;7.93
86580;BMP280;77221;51.120;13.792;2024-03-23T02:52:07;98499.34;;;7.95
86580;BMP280;77221;51.120;13.792;2024-03-23T02:54:33;98487.63;;;7.96
86580;BMP280;77221;51.120;13.792;2024-03-23T02:56:59;98485.66;;;7.93
86580;BMP280;77221;51.120;13.792;2024-03-23T02:59:25;98482.38;;;7.84
86580;BMP280;77221;51.120;13.792;2024-03-23T03:01:52;98485.25;;;7.79
86580;BMP280;77221;51.120;13.792;2024-03-23T03:04:18;98480.88;;;7.71
86580;BMP280;77221;51.120;13.792;2024-03-23T03:06:47;98474.69;;;7.67
86580;BMP280;77221;51.120;13.792;2024-03-23T03:09:13;98476.50;;;7.63
86580;BMP280;77221;51.120;13.792;2024-03-23T03:11:39;98470.41;;;7.62
86580;BMP280;77221;51.120;13.792;2024-03-23T03:14:06;98463.88;;;7.60
86580;BMP280;77221;51.120;13.792;2024-03-23T03:16:33;98469.41;;;7.55
86580;BMP280;77221;51.120;13.792;2024-03-23T03:19:00;98460.28;;;7.52
86580;BMP280;77221;51.120;13.792;2024-03-23T03:21:27;98469.44;;;7.43
86580;BMP280;77221;51.120;13.792;2024-03-23T03:23:53;98454.44;;;7.34
86580;BMP280;77221;51.120;13.792;2024-03-23T03:26:19;98454.00;;;7.32
86580;BMP280;77221;51.120;13.792;2024-03-23T03:28:45;98443.94;;;7.38
86580;BMP280;77221;51.120;13.792;2024-03-23T03:31:15;98443.34;;;7.45
86580;BMP280;77221;51.120;13.792;2024-03-23T03:33:41;98443.81;;;7.47
86580;BMP280;77221;51.120;13.792;2024-03-23T03:36:08;98441.16;;;7.47
86580;BMP280;77221;51.120;13.792;2024-03-23T03:38:34;98444.69;;;7.51
86580;BMP280;77221;51.120;13.792;2024-03-23T03:41:04;98440.22;;;7.55
86580;BMP280;77221;51.120;13.792;2024-03-23T03:43:32;98441.56;;;7.61
86580;BMP280;77221;51.120;13.792;2024-03-23T03:45:59;98437.09;;;7.65
86580;BMP280;77221;51.120;13.792;2024-03-23T03:48:26;98428.03;;;7.66
86580;BMP280;77221;51.120;13.792;2024-03-23T03:50:53;98421.94;;;7.65
86580;BMP280;77221;51.120;13.792;2024-03-23T03:53:19;98423.19;;;7.68
86580;BMP280;77221;51.120;13.792;2024-03-23T03:55:45;98422.81;;;7.69
86580;BMP280;77221;51.120;13.792;2024-03-23T03:58:12;98420.63;;;7.71
86580;BMP280;77221;51.120;13.792;2024-03-23T04:00:38;98421.22;;;7.80
86580;BMP280;77221;51.120;13.792;2024-03-23T04:03:04;98409.59;;;7.85
86580;BMP280;77221;51.120;13.792;2024-03-23T04:05:30;98415.78;;;7.89
86580;BMP280;77221;51.120;13.792;2024-03-23T04:07:56;98412.00;;;7.90
86580;BMP280;77221;51.120;13.792;2024-03-23T04:10:23;98403.63;;;7.88
86580;BMP280;77221;51.120;13.792;2024-03-23T04:12:49;98405.16;;;7.89
86580;BMP280;77221;51.120;13.792;2024-03-23T04:15:15;98396.97;;;7.94
86580;BMP280;77221;51.120;13.792;2024-03-23T04:17:41;98391.53;;;7.91
86580;BMP280;77221;51.120;13.792;2024-03-23T04:20:09;98390.00;;;7.90
86580;BMP280;77221;51.120;13.792;2024-03-23T04:22:37;98388.38;;;7.85
86580;BMP280;77221;51.120;13.792;2024-03-23T04:25:04;98379.22;;;7.82
86580;BMP280;77221;51.120;13.792;2024-03-23T04:27:33;98376.03;;;7.77
86580;BMP280;77221;51.120;13.792;2024-03-23T04:29:59;98367.56;;;7.71
86580;BMP280;77221;51.120;13.792;2024-03-23T04:32:27;98364.31;;;7.62
86580;BMP280;77221;51.120;13.792;2024-03-23T04:34:54;98361.38;;;7.52
86580;BMP280;77221;51.120;13.792;2024-03-23T04:37:20;98355.00;;;7.41
86580;BMP280;77221;51.120;13.792;2024-03-23T04:39:47;98359.00;;;7.34
86580;BMP280;77221;51.120;13.792;2024-03-23T04:42:15;98361.88;;;7.29
86580;BMP280;77221;51.120;13.792;2024-03-23T04:44:41;98364.31;;;7.34
86580;BMP280;77221;51.120;13.792;2024-03-23T04:47:07;98366.22;;;7.50
86580;BMP280;77221;51.120;13.792;2024-03-23T04:49:34;98365.09;;;7.63
86580;BMP280;77221;51.120;13.792;2024-03-23T04:52:04;98357.03;;;7.75
86580;BMP280;77221;51.120;13.792;2024-03-23T04:54:31;98354.81;;;7.77
86580;BMP280;77221;51.120;13.792;2024-03-23T04:57:00;98335.81;;;7.75
86580;BMP280;77221;51.120;13.792;2024-03-23T04:59:26;98293.78;;;7.77
86580;BMP280;77221;51.120;13.792;2024-03-23T05:01:52;98281.56;;;7.72
86580;BMP280;77221;51.120;13.792;2024-03-23T05:04:19;98294.72;;;7.69
86580;BMP280;77221;51.120;13.792;2024-03-23T05:06:45;98272.59;;;7.61
86580;BMP280;77221;51.120;13.792;2024-03-23T05:09:11;98281.56;;;7.57
86580;BMP280;77221;51.120;13.792;2024-03-23T05:11:41;98279.16;;;7.52
86580;BMP280;77221;51.120;13.792;2024-03-23T05:14:12;98270.09;;;7.53
86580;BMP280;77221;51.120;13.792;2024-03-23T05:16:39;98268.28;;;7.57
86580;BMP280;77221;51.120;13.792;2024-03-23T05:19:05;98264.94;;;7.60
86580;BMP280;77221;51.120;13.792;2024-03-23T05:21:31;98260.50;;;7.64
86580;BMP280;77221;51.120;13.792;2024-03-23T05:23:57;98266.84;;;7.75
86580;BMP280;77221;51.120;13.792;2024-03-23T05:26:24;98267.09;;;7.85
86580;BMP280;77221;51.120;13.792;2024-03-23T05:28:50;98265.47;;;7.97
86580;BMP280;77221;51.120;13.792;2024-03-23T05:31:27;98232.84;;;7.96
86580;BMP280;77221;51.120;13.792;2024-03-23T05:33:53;98217.28;;;7.95
86580;BMP280;77221;51.120;13.792;2024-03-23T05:36:19;98222.41;;;8.03
86580;BMP280;77221;51.120;13.792;2024-03-23T05:38:45;98230.16;;;8.12
86580;BMP280;77221;51.120;13.792;2024-03-23T05:41:11;98235.28;;;8.20
86580;BMP280;77221;51.120;13.792;2024-03-23T05:43:38;98211.81;;;8.22
86580;BMP280;77221;51.120;13.792;2024-03-23T05:46:04;98219.50;;;8.27
86580;BMP280;77221;51.120;13.792;2024-03-23T05:48:34;98227.72;;;8.22
86580;BMP280;77221;51.120;13.792;2024-03-23T05:51:01;98235.22;;;8.17
86580;BMP280;77221;51.120;13.792;2024-03-23T05:53:27;98245.75;;;8.13
86580;BMP280;77221;51.120;13.792;2024-03-23T05:56:03;98242.25;;;8.09
86580;BMP280;77221;51.120;13.792;2024-03-23T05:58:33;98237.22;;;8.04
86580;BMP280;77221;51.120;13.792;2024-03-23T06:01:00;98221.19;;;8.01
86580;BMP280;77221;51.120;13.792;2024-03-23T06:03:27;98220.41;;;8.00
86580;BMP280;77221;51.120;13.792;2024-03-23T06:05:54;98202.19;;;7.99
86580;BMP280;77221;51.120;13.792;2024-03-23T06:08:20;98194.75;;;8.04
86580;BMP280;77221;51.120;13.792;2024-03-23T06:10:46;98185.66;;;8.05
86580;BMP280;77221;51.120;13.792;2024-03-23T06:13:13;98174.94;;;8.02
86580;BMP280;77221;51.120;13.792;2024-03-23T06:15:39;98160.66;;;8.06
86580;BMP280;77221;51.120;13.792;2024-03-23T06:18:06;98155.75;;;8.08
86580;BMP280;77221;51.120;13.792;2024-03-23T06:20:34;98148.22;;;8.10
86580;BMP280;77221;51.120;13.792;2024-03-23T06:23:01;98140.25;;;8.10
86580;BMP280;77221;51.120;13.792;2024-03-23T06:25:27;98135.66;;;8.07
86580;BMP280;77221;51.120;13.792;2024-03-23T06:27:54;98128.81;;;8.06
86580;BMP280;77221;51.120;13.792;2024-03-23T06:30:20;98126.50;;;8.05
86580;BMP280;77221;51.120;13.792;2024-03-23T06:32:46;98128.81;;;8.06
86580;BMP280;77221;51.120;13.792;2024-03-23T06:35:12;98112.03;;;8.02
86580;BMP280;77221;51.120;13.792;2024-03-23T06:37:38;98109.03;;;8.04
86580;BMP280;77221;51.120;13.792;2024-03-23T06:40:07;98110.63;;;8.08
86580;BMP280;77221;51.120;13.792;2024-03-23T06:42:36;98106.16;;;8.12
86580;BMP280;77221;51.120;13.792;2024-03-23T06:45:03;98103.94;;;8.14
86580;BMP280;77221;51.120;13.792;2024-03-23T06:47:32;98100.22;;;8.19
86580;BMP280;77221;51.120;13.792;2024-03-23T06:49:59;98085.78;;;8.16
86580;BMP280;77221;51.120;13.792;2024-03-23T06:52:28;98072.09;;;8.14
86580;BMP280;77221;51.120;13.792;2024-03-23T06:54:54;98064.47;;;8.13
86580;BMP280;77221;51.120;13.792;2024-03-23T06:57:20;98068.31;;;8.15
86580;BMP280;77221;51.120;13.792;2024-03-23T06:59:47;98052.09;;;8.20
86580;BMP280;77221;51.120;13.792;2024-03-23T07:02:13;98053.16;;;8.16
86580;BMP280;77221;51.120;13.792;2024-03-23T07:04:40;98055.59;;;8.24
86580;BMP280;77221;51.120;13.792;2024-03-23T07:07:06;98059.38;;;8.23
86580;BMP280;77221;51.120;13.792;2024-03-23T07:09:32;98057.91;;;8.26
86580;BMP280;77221;51.120;13.792;2024-03-23T07:11:59;98070.03;;;8.27
86580;BMP280;77221;51.120;13.792;2024-03-23T07:14:25;98077.66;;;8.28
86580;BMP280;77221;51.120;13.792;2024-03-23T07:16:52;98083.78;;;8.32
86580;BMP280;77221;51.120;13.792;2024-03-23T07:19:18;98084.63;;;8.36
86580;BMP280;77221;51.120;13.792;2024-03-23T07:21:44;98089.66;;;8.42
86580;BMP280;77221;51.120;13.792;2024-03-23T07:24:11;98083.34;;;8.50
86580;BMP280;77221;51.120;13.792;2024-03-23T07:26:37;98079.59;;;8.51
86580;BMP280;77221;51.120;13.792;2024-03-23T07:29:04;98056.97;;;8.60
86580;BMP280;77221;51.120;13.792;2024-03-23T07:31:30;98033.06;;;8.83
86580;BMP280;77221;51.120;13.792;2024-03-23T07:33:56;98046.63;;;9.27
86580;BMP280;77221;51.120;13.792;2024-03-23T07:36:23;98037.56;;;9.31
86580;BMP280;77221;51.120;13.792;2024-03-23T07:38:49;98029.72;;;9.12
86580;BMP280;77221;51.120;13.792;2024-03-23T07:41:17;98024.06;;;8.91
86580;BMP280;77221;51.120;13.792;2024-03-23T07:43:43;98015.84;;;9.00
86580;BMP280;77221;51.120;13.792;2024-03-23T07:46:09;98017.22;;;8.90
86580;BMP280;77221;51.120;13.792;2024-03-23T07:48:35;98009.66;;;8.92
86580;BMP280;77221;51.120;13.792;2024-03-23T07:51:17;98004.06;;;8.97
86580;BMP280;77221;51.120;13.792;2024-03-23T07:53:44;97990.00;;;8.97
86580;BMP280;77221;51.120;13.792;2024-03-23T07:56:12;97984.88;;;9.11
86580;BMP280;77221;51.120;13.792;2024-03-23T07:58:38;97981.84;;;9.12
86580;BMP280;77221;51.120;13.792;2024-03-23T08:01:06;97988.28;;;9.11
86580;BMP280;77221;51.120;13.792;2024-03-23T08:03:40;97970.94;;;9.21
86580;BMP280;77221;51.120;13.792;2024-03-23T08:06:13;97966.84;;;9.27
86580;BMP280;77221;51.120;13.792;2024-03-23T08:08:41;97948.28;;;9.30
86580;BMP280;77221;51.120;13.792;2024-03-23T08:11:08;97940.28;;;9.64
86580;BMP280;77221;51.120;13.792;2024-03-23T08:13:34;97937.63;;;9.64
86580;BMP280;77221;51.120;13.792;2024-03-23T08:16:02;97940.09;;;9.83
86580;BMP280;77221;51.120;13.792;2024-03-23T08:18:29;97938.53;;;9.75
86580;BMP280;77221;51.120;13.792;2024-03-23T08:23:24;97914.66;;;9.82
86580;BMP280;77221;51.120;13.792;2024-03-23T08:25:51;97907.63;;;10.07
86580;BMP280;77221;51.120;13.792;2024-03-23T08:28:17;97899.47;;;10.33
86580;BMP280;77221;51.120;13.792;2024-03-23T08:30:44;97895.47;;;10.61
86580;BMP280;77221;51.120;13.792;2024-03-23T08:33:10;97886.13;;;10.91
86580;BMP280;77221;51.120;13.792;2024-03-23T08:35:36;97880.84;;;11.09
86580;BMP280;77221;51.120;13.792;2024-03-23T08:38:02;97874.72;;;11.09
86580;BMP280;77221;51.120;13.792;2024-03-23T08:40:29;97873.31;;;11.32
86580;BMP280;77221;51.120;13.792;2024-03-23T08:42:55;97865.66;;;11.27
86580;BMP280;77221;51.120;13.792;2024-03-23T08:45:21;97866.44;;;11.31
86580;BMP280;77221;51.120;13.792;2024-03-23T08:47:47;97884.66;;;11.15
86580;BMP280;77221;51.120;13.792;2024-03-23T08:50:13;97877.72;;;10.86
86580;BMP280;77221;51.120;13.792;2024-03-23T08:52:39;97892.44;;;10.66
86580;BMP280;77221;51.120;13.792;2024-03-23T08:55:06;97886.72;;;10.67
86580;BMP280;77221;51.120;13.792;2024-03-23T08:57:32;97879.00;;;10.44
86580;BMP280;77221;51.120;13.792;2024-03-23T08:59:58;97891.28;;;10.60
86580;BMP280;77221;51.120;13.792;2024-03-23T09:02:25;97883.06;;;10.93
86580;BMP280;77221;51.120;13.792;2024-03-23T09:04:51;97883.94;;;11.25
86580;BMP280;77221;51.120;13.792;2024-03-23T09:07:17;97896.22;;;11.55
86580;BMP280;77221;51.120;13.792;2024-03-23T09:09:43;97883.63;;;11.87
86580;BMP280;77221;51.120;13.792;2024-03-23T09:12:09;97896.25;;;12.11
86580;BMP280;77221;51.120;13.792;2024-03-23T09:14:35;97890.47;;;12.44
86580;BMP280;77221;51.120;13.792;2024-03-23T09:17:02;97891.19;;;12.66
86580;BMP280;77221;51.120;13.792;2024-03-23T09:19:29;97897.59;;;12.83
86580;BMP280;77221;51.120;13.792;2024-03-23T09:21:55;97898.41;;;12.80
86580;BMP280;77221;51.120;13.792;2024-03-23T09:24:22;97887.31;;;12.71
86580;BMP280;77221;51.120;13.792;2024-03-23T09:26:48;97904.63;;;12.48
86580;BMP280;77221;51.120;13.792;2024-03-23T09:29:14;97903.88;;;12.20
86580;BMP280;77221;51.120;13.792;2024-03-23T09:31:40;97903.13;;;12.05
86580;BMP280;77221;51.120;13.792;2024-03-23T09:34:06;97907.31;;;11.95
86580;BMP280;77221;51.120;13.792;2024-03-23T09:36:33;97908.47;;;11.84
86580;BMP280;77221;51.120;13.792;2024-03-23T09:38:59;97903.88;;;11.74
86580;BMP280;77221;51.120;13.792;2024-03-23T09:41:25;97931.31;;;11.64
86580;BMP280;77221;51.120;13.792;2024-03-23T09:43:54;97932.84;;;11.65
86580;BMP280;77221;51.120;13.792;2024-03-23T09:46:20;97960.69;;;11.71
86580;BMP280;77221;51.120;13.792;2024-03-23T09:48:47;97954.06;;;11.29
86580;BMP280;77221;51.120;13.792;2024-03-23T09:51:13;97966.59;;;11.15
86580;BMP280;77221;51.120;13.792;2024-03-23T09:53:39;97993.41;;;10.74
86580;BMP280;77221;51.120;13.792;2024-03-23T09:56:07;98024.78;;;10.07
86580;BMP280;77221;51.120;13.792;2024-03-23T09:58:34;98020.72;;;9.80
86580;BMP280;77221;51.120;13.792;2024-03-23T10:01:01;98050.16;;;9.08
86580;BMP280;77221;51.120;13.792;2024-03-23T10:03:27;98059.50;;;8.30
86580;BMP280;77221;51.120;13.792;2024-03-23T10:06:01;98083.94;;;7.63
86580;BMP280;77221;51.120;13.792;2024-03-23T10:08:27;98082.22;;;7.55
86580;BMP280;77221;51.120;13.792;2024-03-23T10:10:54;98109.34;;;7.48
86580;BMP280;77221;51.120;13.792;2024-03-23T10:13:28;98152.03;;;7.27
86580;BMP280;77221;51.120;13.792;2024-03-23T10:15:59;98160.78;;;6.57
86580;BMP280;77221;51.120;13.792;2024-03-23T10:18:25;98177.28;;;5.98
86580;BMP280;77221;51.120;13.792;2024-03-23T10:23:36;98188.06;;;5.93
86580;BMP280;77221;51.120;13.792;2024-03-23T10:29:02;98223.72;;;5.51
86580;BMP280;77221;51.120;13.792;2024-03-23T10:34:03;98267.03;;;5.25
86580;BMP280;77221;51.120;13.792;2024-03-23T10:36:30;98263.00;;;5.28
86580;BMP280;77221;51.120;13.792;2024-03-23T10:38:56;98270.69;;;5.21
86580;BMP280;77221;51.120;13.792;2024-03-23T10:41:31;98286.22;;;5.22
86580;BMP280;77221;51.120;13.792;2024-03-23T10:43:57;98293.72;;;5.32
86580;BMP280;77221;51.120;13.792;2024-03-23T10:46:24;98313.38;;;5.44
86580;BMP280;77221;51.120;13.792;2024-03-23T10:48:50;98336.19;;;5.27
86580;BMP280;77221;51.120;13.792;2024-03-23T10:51:16;98341.69;;;5.22
86580;BMP280;77221;51.120;13.792;2024-03-23T10:53:44;98355.50;;;5.07
86580;BMP280;77221;51.120;13.792;2024-03-23T10:56:12;98373.22;;;4.98
86580;BMP280;77221;51.120;13.792;2024-03-23T10:58:42;98377.25;;;5.04
86580;BMP280;77221;51.120;13.792;2024-03-23T11:01:12;98384.88;;;4.97
86580;BMP280;77221;51.120;13.792;2024-03-23T11:03:44;98400.78;;;4.88
86580;BMP280;77221;51.120;13.792;2024-03-23T11:06:10;98421.84;;;4.68
86580;BMP280;77221;51.120;13.792;2024-03-23T11:08:38;98425.03;;;4.53
86580;BMP280;77221;51.120;13.792;2024-03-23T11:11:20;98438.66;;;4.55
86580;BMP280;77221;51.120;13.792;2024-03-23T11:13:54;98460.75;;;4.41
86580;BMP280;77221;51.120;13.792;2024-03-23T11:16:24;98437.47;;;4.43
86580;BMP280;77221;51.120;13.792;2024-03-23T11:18:51;98429.09;;;4.79
86580;BMP280;77221;51.120;13.792;2024-03-23T11:21:52;98434.13;;;4.93
86580;BMP280;77221;51.120;13.792;2024-03-23T11:24:20;98434.28;;;4.67
86580;BMP280;77221;51.120;13.792;2024-03-23T11:26:47;98453.91;;;4.87
86580;BMP280;77221;51.120;13.792;2024-03-23T11:29:15;98433.06;;;4.65
86580;BMP280;77221;51.120;13.792;2024-03-23T11:31:48;98440.09;;;4.81
86580;BMP280;77221;51.120;13.792;2024-03-23T11:34:18;98437.78;;;5.09
86580;BMP280;77221;51.120;13.792;2024-03-23T11:36:45;98450.91;;;4.97
86580;BMP280;77221;51.120;13.792;2024-03-23T11:39:18;98451.38;;;4.99
86580;BMP280;77221;51.120;13.792;2024-03-23T11:41:56;98469.84;;;4.99
86580;BMP280;77221;51.120;13.792;2024-03-23T11:44:25;98471.47;;;4.83
86580;BMP280;77221;51.120;13.792;2024-03-23T11:46:51;98480.22;;;4.75
86580;BMP280;77221;51.120;13.792;2024-03-23T11:49:25;98484.06;;;4.77
86580;BMP280;77221;51.120;13.792;2024-03-23T11:51:54;98495.22;;;4.91
86580;BMP280;77221;51.120;13.792;2024-03-23T11:54:22;98506.53;;;4.54
86580;BMP280;77221;51.120;13.792;2024-03-23T11:59:40;98503.09;;;5.00
86580;BMP280;77221;51.120;13.792;2024-03-23T12:02:10;98505.63;;;4.88
86580;BMP280;77221;51.120;13.792;2024-03-23T12:04:38;98489.16;;;4.91
86580;BMP280;77221;51.120;13.792;2024-03-23T12:07:18;98502.75;;;4.72
86580;BMP280;77221;51.120;13.792;2024-03-23T12:09:45;98510.63;;;4.81
86580;BMP280;77221;51.120;13.792;2024-03-23T12:12:17;98471.84;;;5.02
86580;BMP280;77221;51.120;13.792;2024-03-23T12:15:00;98479.44;;;5.12
86580;BMP280;77221;51.120;13.792;2024-03-23T12:17:27;98499.31;;;5.10
86580;BMP280;77221;51.120;13.792;2024-03-23T12:19:53;98477.88;;;5.11
86580;BMP280;77221;51.120;13.792;2024-03-23T12:22:23;98489.28;;;4.94
86580;BMP280;77221;51.120;13.792;2024-03-23T12:24:49;98488.50;;;4.94
86580;BMP280;77221;51.120;13.792;2024-03-23T12:27:19;98478.97;;;4.81
86580;BMP280;77221;51.120;13.792;2024-03-23T12:29:45;98506.47;;;4.71
86580;BMP280;77221;51.120;13.792;2024-03-23T12:32:13;98500.41;;;4.71
86580;BMP280;77221;51.120;13.792;2024-03-23T12:34:40;98479.44;;;4.66
86580;BMP280;77221;51.120;13.792;2024-03-23T12:37:07;98503.84;;;4.63
86580;BMP280;77221;51.120;13.792;2024-03-23T12:39:33;98499.47;;;4.75
86580;BMP280;77221;51.120;13.792;2024-03-23T12:42:02;98496.19;;;4.78
86580;BMP280;77221;51.120;13.792;2024-03-23T12:44:30;98482.34;;;4.90
86580;BMP280;77221;51.120;13.792;2024-03-23T12:46:57;98482.50;;;5.14
86580;BMP280;77221;51.120;13.792;2024-03-23T12:49:23;98486.31;;;5.55
86580;BMP280;77221;51.120;13.792;2024-03-23T12:51:56;98496.06;;;5.63
86580;BMP280;77221;51.120;13.792;2024-03-23T12:54:22;98490.97;;;5.58
86580;BMP280;77221;51.120;13.792;2024-03-23T12:56:49;98512.88;;;5.37
86580;BMP280;77221;51.120;13.792;2024-03-23T12:59:15;98525.09;;;5.21
86580;BMP280;77221;51.120;13.792;2024-03-23T13:01:42;98519.88;;;5.04
86580;BMP280;77221;51.120;13.792;2024-03-23T13:04:09;98520.59;;;5.13
86580;BMP280;77221;51.120;13.792;2024-03-23T13:06:35;98536.59;;;5.08
86580;BMP280;77221;51.120;13.792;2024-03-23T13:09:02;98530.06;;;5.23
86580;BMP280;77221;51.120;13.792;2024-03-23T13:11:32;98514.09;;;5.61
86580;BMP280;77221;51.120;13.792;2024-03-23T13:13:58;98495.28;;;5.83
86580;BMP280;77221;51.120;13.792;2024-03-23T13:16:24;98502.94;;;5.76
86580;BMP280;77221;51.120;13.792;2024-03-23T13:18:50;98489.94;;;5.71
86580;BMP280;77221;51.120;13.792;2024-03-23T13:21:17;98486.06;;;5.89
86580;BMP280;77221;51.120;13.792;2024-03-23T13:23:46;98509.56;;;5.91
86580;BMP280;77221;51.120;13.792;2024-03-23T13:26:14;98540.41;;;5.57
86580;BMP280;77221;51.120;13.792;2024-03-23T13:28:40;98543.84;;;5.58
86580;BMP280;77221;51.120;13.792;2024-03-23T13:31:07;98546.78;;;5.65
86580;BMP280;77221;51.120;13.792;2024-03-23T13:33:34;98567.19;;;5.76
86580;BMP280;77221;51.120;13.792;2024-03-23T13:36:04;98566.25;;;5.81
86580;BMP280;77221;51.120;13.792;2024-03-23T13:38:30;98573.03;;;5.70
86580;BMP280;77221;51.120;13.792;2024-03-23T13:40:58;98571.31;;;5.65
86580;BMP280;77221;51.120;13.792;2024-03-23T13:43:27;98581.50;;;5.75
86580;BMP280;77221;51.120;13.792;2024-03-23T13:45:58;98581.72;;;5.91
86580;BMP280;77221;51.120;13.792;2024-03-23T13:48:26;98580.78;;;6.16
86580;BMP280;77221;51.120;13.792;2024-03-23T13:51:00;98561.72;;;7.01
86580;BMP280;77221;51.120;13.792;2024-03-23T13:53:26;98555.19;;;6.98
86580;BMP280;77221;51.120;13.792;2024-03-23T13:55:53;98535.97;;;7.01
86580;BMP280;77221;51.120;13.792;2024-03-23T13:58:19;98532.25;;;7.14
86580;BMP280;77221;51.120;13.792;2024-03-23T14:00:46;98531.34;;;7.10
86580;BMP280;77221;51.120;13.792;2024-03-23T14:03:13;98530.84;;;7.57
86580;BMP280;77221;51.120;13.792;2024-03-23T14:05:40;98533.25;;;7.74
86580;BMP280;77221;51.120;13.792;2024-03-23T14:08:10;98523.75;;;8.01
86580;BMP280;77221;51.120;13.792;2024-03-23T14:10:40;98534.03;;;8.02
86580;BMP280;77221;51.120;13.792;2024-03-23T14:13:06;98518.22;;;7.66
86580;BMP280;77221;51.120;13.792;2024-03-23T14:15:33;98530.03;;;7.28
86580;BMP280;77221;51.120;13.792;2024-03-23T14:17:59;98537.22;;;7.16
86580;BMP280;77221;51.120;13.792;2024-03-23T14:20:26;98545.03;;;7.00
86580;BMP280;77221;51.120;13.792;2024-03-23T14:22:52;98542.81;;;7.02
86580;BMP280;77221;51.120;13.792;2024-03-23T14:25:18;98548.91;;;7.15
86580;BMP280;77221;51.120;13.792;2024-03-23T14:27:45;98566.03;;;7.17
86580;BMP280;77221;51.120;13.792;2024-03-23T14:30:12;98569.22;;;7.23
86580;BMP280;77221;51.120;13.792;2024-03-23T14:35:06;98554.03;;;7.72
86580;BMP280;77221;51.120;13.792;2024-03-23T14:37:37;98554.69;;;7.69
86580;BMP280;77221;51.120;13.792;2024-03-23T14:40:04;98558.03;;;8.06
86580;BMP280;77221;51.120;13.792;2024-03-23T14:42:30;98552.47;;;7.83
86580;BMP280;77221;51.120;13.792;2024-03-23T14:45:00;98560.28;;;8.19
86580;BMP280;77221;51.120;13.792;2024-03-23T14:47:26;98537.03;;;9.22
86580;BMP280;77221;51.120;13.792;2024-03-23T14:49:52;98535.94;;;9.43
86580;BMP280;77221;51.120;13.792;2024-03-23T14:52:19;98536.94;;;9.54
86580;BMP280;77221;51.120;13.792;2024-03-23T14:54:46;98530.34;;;9.48
86580;BMP280;77221;51.120;13.792;2024-03-23T14:57:12;98526.72;;;10.36
86580;BMP280;77221;51.120;13.792;2024-03-23T14:59:38;98517.03;;;10.47
86580;BMP280;77221;51.120;13.792;2024-03-23T15:02:07;98523.50;;;9.85
86580;BMP280;77221;51.120;13.792;2024-03-23T15:04:34;98528.19;;;9.18
86580;BMP280;77221;51.120;13.792;2024-03-23T15:07:00;98522.81;;;9.50
86580;BMP280;77221;51.120;13.792;2024-03-23T15:09:27;98543.53;;;9.98
86580;BMP280;77221;51.120;13.792;2024-03-23T15:11:53;98536.66;;;9.59
86580;BMP280;77221;51.120;13.792;2024-03-23T15:14:23;98517.75;;;9.64